Time;durP1;ratioP1;P1;durP2;ratioP2;P2;SDS_P1;SDS_P2;PMS_P1;PMS_P2;Temp;Humidity;BMP_temperature;BMP_pressure;BME280_temperature;BME280_humidity;BME280_pressure;Samples;Min_cycle;Max_cycle;Signal;HPM_P1;HPM_P2
2021/09/06 04:01:50;;;;;;;10.87;10.00;;;15.60;99.90;;;;;;5357637;23;20580;-67
2021/09/06 04:04:17;;;;;;;10.23;9.43;;;15.60;99.90;;;;;;4997733;28;20448;-66
2021/09/06 04:06:44;;;;;;;12.97;8.97;;;15.50;99.90;;;;;;4997584;28;20892;-67
2021/09/06 04:09:11;;;;;;;10.30;9.30;;;15.50;99.90;;;;;;4997447;28;20454;-68
2021/09/06 04:11:37;;;;;;;11.07;10.00;;;15.40;99.90;;;;;;4997372;28;20469;-68
2021/09/06 04:14:04;;;;;;;11.40;10.30;;;15.40;99.90;;;;;;4997101;28;20486;-68
2021/09/06 04:16:31;;;;;;;11.03;10.03;;;15.30;99.90;;;;;;4997382;28;20979;-68
2021/09/06 04:18:59;;;;;;;10.50;9.47;;;15.30;99.90;;;;;;4997399;28;20959;-68
2021/09/06 04:21:25;;;;;;;11.53;10.60;;;15.20;99.90;;;;;;4997310;28;20524;-68
2021/09/06 04:23:52;;;;;;;11.20;10.17;;;15.20;99.90;;;;;;4996911;28;20454;-68
2021/09/06 04:26:19;;;;;;;10.07;9.17;;;15.10;99.90;;;;;;4997273;28;20461;-69
2021/09/06 04:28:46;;;;;;;12.00;11.10;;;15.10;99.90;;;;;;4996882;28;21007;-68
2021/09/06 04:31:12;;;;;;;11.47;10.47;;;15.00;99.90;;;;;;4997180;28;20814;-68
2021/09/06 04:33:39;;;;;;;11.97;10.70;;;14.90;99.90;;;;;;4996955;28;20458;-68
2021/09/06 04:36:07;;;;;;;11.40;10.40;;;14.90;99.90;;;;;;4996939;28;20457;-68
2021/09/06 04:38:34;;;;;;;11.47;10.50;;;14.90;99.90;;;;;;4996878;28;20798;-68
2021/09/06 04:41:00;;;;;;;12.60;11.40;;;14.80;99.90;;;;;;4996725;28;20473;-68
2021/09/06 04:43:27;;;;;;;13.70;12.33;;;14.70;99.90;;;;;;4996780;28;20457;-68
2021/09/06 04:45:54;;;;;;;13.00;11.80;;;14.70;99.90;;;;;;4996431;28;20473;-68
2021/09/06 04:48:21;;;;;;;12.97;11.87;;;14.70;99.90;;;;;;4996864;28;20457;-68
2021/09/06 04:50:47;;;;;;;13.67;12.40;;;14.70;99.90;;;;;;4996683;28;20481;-68
2021/09/06 04:53:15;;;;;;;13.00;11.90;;;14.60;99.90;;;;;;4996751;28;20454;-68
2021/09/06 04:55:42;;;;;;;14.20;12.87;;;14.50;99.90;;;;;;4996617;28;20478;-68
2021/09/06 04:58:09;;;;;;;14.70;13.13;;;14.50;99.90;;;;;;4996468;28;20959;-68
2021/09/06 05:00:35;;;;;;;14.53;13.23;;;14.50;99.90;;;;;;4996077;28;20492;-68
2021/09/06 05:03:02;;;;;;;13.10;11.77;;;14.50;99.90;;;;;;4996180;28;20934;-68
2021/09/06 05:05:29;;;;;;;13.83;12.47;;;14.50;99.90;;;;;;4996193;28;20864;-68
2021/09/06 05:07:55;;;;;;;13.53;12.33;;;14.50;99.90;;;;;;4996430;28;20462;-69
2021/09/06 05:10:24;;;;;;;14.30;12.90;;;14.50;99.90;;;;;;4996204;28;20457;-68
2021/09/06 05:12:50;;;;;;;17.83;14.10;;;14.60;99.90;;;;;;4996315;28;20458;-69
2021/09/06 05:15:17;;;;;;;15.47;13.97;;;14.60;99.90;;;;;;4996375;28;20481;-68
2021/09/06 05:17:44;;;;;;;15.23;13.73;;;14.60;99.90;;;;;;4997046;28;20458;-68
2021/09/06 05:20:11;;;;;;;14.30;12.80;;;14.60;99.90;;;;;;4996847;28;20454;-68
2021/09/06 05:22:38;;;;;;;13.80;12.60;;;14.60;99.90;;;;;;4996740;28;20457;-68
2021/09/06 05:25:06;;;;;;;14.00;12.80;;;14.60;99.90;;;;;;4996301;28;20454;-69
2021/09/06 05:27:34;;;;;;;14.20;12.80;;;14.70;99.90;;;;;;4996312;28;20453;-68
2021/09/06 05:30:00;;;;;;;14.80;12.80;;;14.70;99.90;;;;;;4995776;28;20945;-68
2021/09/06 05:32:27;;;;;;;15.00;13.60;;;14.80;99.90;;;;;;4995854;28;20477;-68
2021/09/06 05:34:54;;;;;;;13.57;12.27;;;14.80;99.90;;;;;;4995857;28;20504;-68
2021/09/06 05:37:21;;;;;;;18.90;13.83;;;14.80;99.90;;;;;;4995475;28;20457;-68
2021/09/06 05:39:47;;;;;;;14.80;13.40;;;14.90;99.90;;;;;;4995677;28;20937;-67
2021/09/06 05:42:14;;;;;;;15.23;12.67;;;14.90;99.90;;;;;;4995629;28;20496;-67
2021/09/06 05:44:42;;;;;;;14.17;12.77;;;14.90;99.90;;;;;;4995860;28;20450;-67
2021/09/06 05:47:09;;;;;;;14.10;12.80;;;15.00;99.90;;;;;;4995460;28;20444;-67
2021/09/06 05:49:36;;;;;;;15.57;14.03;;;15.00;99.90;;;;;;4995660;28;20461;-67
2021/09/06 05:52:02;;;;;;;19.50;14.40;;;15.10;99.90;;;;;;4995056;28;20840;-67
2021/09/06 05:54:29;;;;;;;13.90;12.70;;;15.30;99.90;;;;;;4995384;28;20484;-67
2021/09/06 05:56:56;;;;;;;12.93;11.60;;;15.50;99.90;;;;;;4994733;28;20816;-67
2021/09/06 05:59:23;;;;;;;13.23;11.93;;;15.80;99.90;;;;;;4995478;28;20453;-67
2021/09/06 06:01:51;;;;;;;13.47;12.20;;;16.10;99.90;;;;;;4994976;28;20481;-67
2021/09/06 06:04:17;;;;;;;13.87;12.47;;;16.40;99.90;;;;;;4995263;28;20458;-67
2021/09/06 06:06:44;;;;;;;13.30;11.20;;;16.70;99.90;;;;;;4995145;28;20952;-67
2021/09/06 06:09:11;;;;;;;13.13;11.73;;;17.10;99.90;;;;;;4995350;28;20458;-67
2021/09/06 06:11:38;;;;;;;12.33;11.33;;;17.30;99.90;;;;;;4995412;28;20481;-67
2021/09/06 06:14:05;;;;;;;12.30;11.07;;;17.70;99.90;;;;;;4995275;28;20852;-67
2021/09/06 06:16:33;;;;;;;12.50;11.17;;;18.00;99.90;;;;;;4995169;28;20499;-67
2021/09/06 06:19:01;;;;;;;12.17;10.90;;;18.60;99.90;;;;;;4995071;28;20473;-67
2021/09/06 06:21:27;;;;;;;10.40;9.50;;;19.00;99.90;;;;;;4995015;28;20481;-67
2021/09/06 06:23:55;;;;;;;11.83;10.80;;;19.50;99.90;;;;;;4995025;28;20461;-67
2021/09/06 06:26:22;;;;;;;10.70;9.67;;;19.90;99.90;;;;;;4994964;28;20450;-67
2021/09/06 06:28:49;;;;;;;10.93;9.93;;;20.20;99.90;;;;;;4995506;28;20453;-67
2021/09/06 06:31:16;;;;;;;13.40;10.80;;;20.60;99.90;;;;;;4994836;28;20477;-67
2021/09/06 06:33:43;;;;;;;11.10;10.10;;;20.90;99.90;;;;;;4994605;28;20458;-67
2021/09/06 06:36:11;;;;;;;11.73;10.30;;;21.20;99.90;;;;;;4994525;28;20814;-67
2021/09/06 06:38:38;;;;;;;10.83;9.83;;;21.40;99.90;;;;;;4994853;28;20438;-67
2021/09/06 06:41:05;;;;;;;11.73;10.63;;;21.70;99.90;;;;;;4994688;28;20477;-67
2021/09/06 06:43:31;;;;;;;11.50;10.47;;;22.20;99.90;;;;;;4994610;28;20476;-68
2021/09/06 06:45:58;;;;;;;15.20;9.43;;;22.70;99.90;;;;;;4994865;28;20533;-67
2021/09/06 06:48:25;;;;;;;11.30;10.40;;;22.60;99.90;;;;;;4994793;28;20457;-67
2021/09/06 06:50:52;;;;;;;11.70;9.40;;;23.10;99.90;;;;;;4994796;28;20496;-66
2021/09/06 06:53:20;;;;;;;10.97;10.00;;;23.50;99.90;;;;;;4994964;28;20461;-65
2021/09/06 06:55:46;;;;;;;12.23;9.00;;;23.90;99.90;;;;;;4994510;28;20988;-65
2021/09/06 06:58:13;;;;;;;11.80;10.00;;;24.30;99.90;;;;;;4994908;28;20477;-64
2021/09/06 07:00:40;;;;;;;11.30;9.53;;;24.60;99.90;;;;;;4994509;28;20489;-64
2021/09/06 07:03:06;;;;;;;11.03;10.20;;;24.90;99.90;;;;;;4994711;28;20438;-65
2021/09/06 07:05:33;;;;;;;11.00;10.17;;;25.10;99.90;;;;;;4994612;28;20457;-64
2021/09/06 07:08:00;;;;;;;9.83;9.03;;;25.40;99.90;;;;;;4996691;28;20454;-65
2021/09/06 07:10:28;;;;;;;11.30;9.03;;;25.70;99.90;;;;;;4998845;28;20458;-65
2021/09/06 07:12:56;;;;;;;10.23;9.43;;;25.70;98.80;;;;;;4999937;28;20453;-64
2021/09/06 07:15:22;;;;;;;9.43;8.63;;;25.80;99.40;;;;;;4998677;28;20481;-65
2021/09/06 07:17:49;;;;;;;9.37;8.67;;;26.10;98.60;;;;;;4998495;28;20453;-64
2021/09/06 07:20:16;;;;;;;9.40;8.60;;;26.30;98.50;;;;;;4998568;28;20457;-66
2021/09/06 07:22:43;;;;;;;9.40;8.60;;;26.50;96.50;;;;;;4998606;28;20458;-64
2021/09/06 07:25:10;;;;;;;9.63;8.87;;;27.10;95.70;;;;;;5005744;28;20473;-64
2021/09/06 07:27:38;;;;;;;10.27;9.47;;;27.70;95.10;;;;;;5004713;28;20453;-65
2021/09/06 07:30:06;;;;;;;11.50;10.37;;;28.10;93.40;;;;;;5004431;28;20453;-64
2021/09/06 07:32:33;;;;;;;9.43;8.60;;;28.40;92.30;;;;;;5003968;28;20481;-64
2021/09/06 07:35:00;;;;;;;11.53;10.43;;;28.50;92.70;;;;;;4998504;28;20465;-64
2021/09/06 07:37:27;;;;;;;10.40;9.40;;;28.40;91.50;;;;;;4998255;28;20453;-66
2021/09/06 07:39:53;;;;;;;9.67;8.83;;;28.50;90.40;;;;;;4998470;28;20464;-66
2021/09/06 07:42:20;;;;;;;11.73;8.27;;;28.90;91.00;;;;;;4998108;28;20931;-64
2021/09/06 07:44:48;;;;;;;10.23;9.23;;;29.10;90.00;;;;;;4998442;28;20457;-64
2021/09/06 07:47:15;;;;;;;10.37;9.47;;;29.60;88.10;;;;;;4998062;28;20458;-64
2021/09/06 07:49:44;;;;;;;11.90;8.67;;;30.00;88.50;;;;;;4998062;28;20511;-64
2021/09/06 07:52:11;;;;;;;8.87;8.10;;;30.60;86.80;;;;;;4997725;28;20484;-64
2021/09/06 07:54:38;;;;;;;9.67;8.87;;;31.10;82.90;;;;;;4997770;28;20457;-64
2021/09/06 07:57:05;;;;;;;9.83;8.90;;;30.30;81.50;;;;;;4997380;28;20794;-64
2021/09/06 07:59:31;;;;;;;9.63;8.73;;;29.90;84.20;;;;;;4997457;28;20442;-64
2021/09/06 08:01:59;;;;;;;9.60;8.70;;;30.40;82.70;;;;;;4997330;28;20847;-64
2021/09/06 08:04:26;;;;;;;10.03;9.10;;;30.70;80.00;;;;;;4997228;28;20460;-64
2021/09/06 08:06:54;;;;;;;9.80;9.10;;;31.00;77.90;;;;;;4997438;28;20464;-64
2021/09/06 08:09:20;;;;;;;9.87;9.00;;;31.30;78.70;;;;;;4997742;28;20442;-65
2021/09/06 08:11:48;;;;;;;10.67;9.57;;;31.10;77.50;;;;;;4997065;28;21011;-65
2021/09/06 08:14:15;;;;;;;10.93;9.73;;;30.70;78.50;;;;;;4997098;28;20544;-65
2021/09/06 08:16:41;;;;;;;9.37;8.57;;;30.90;77.70;;;;;;4997507;28;20485;-65
2021/09/06 08:19:10;;;;;;;9.87;8.87;;;31.20;78.90;;;;;;4996610;28;20457;-64
2021/09/06 08:21:37;;;;;;;10.20;8.90;;;31.30;74.80;;;;;;4997137;28;20484;-65
2021/09/06 08:24:04;;;;;;;9.40;8.33;;;32.20;76.80;;;;;;4997124;28;20878;-65
2021/09/06 08:26:31;;;;;;;9.90;9.00;;;32.60;72.00;;;;;;4997316;28;20933;-65
2021/09/06 08:28:57;;;;;;;9.20;8.43;;;32.50;75.20;;;;;;4997219;28;20454;-65
2021/09/06 08:31:25;;;;;;;9.10;8.30;;;32.50;71.90;;;;;;4997088;28;20481;-66
2021/09/06 08:33:52;;;;;;;9.97;9.20;;;33.10;68.40;;;;;;4996927;28;20514;-66
2021/09/06 08:36:20;;;;;;;10.03;9.33;;;33.80;67.20;;;;;;4996727;28;20483;-66
2021/09/06 08:38:47;;;;;;;8.30;7.63;;;34.20;62.00;;;;;;4996934;28;20467;-66
2021/09/06 08:41:14;;;;;;;9.67;8.97;;;34.90;61.40;;;;;;4997038;28;20485;-66
2021/09/06 08:43:41;;;;;;;9.43;8.53;;;35.40;59.80;;;;;;4996912;28;20559;-66
2021/09/06 08:46:08;;;;;;;11.30;10.37;;;35.60;63.00;;;;;;4996559;28;20458;-66
2021/09/06 08:48:35;;;;;;;10.30;9.60;;;35.50;58.50;;;;;;4996688;28;20455;-66
2021/09/06 08:51:02;;;;;;;10.03;9.13;;;35.70;57.70;;;;;;4996681;28;20477;-66
2021/09/06 08:53:30;;;;;;;9.57;8.87;;;35.80;58.00;;;;;;4996657;28;20462;-66
2021/09/06 08:55:57;;;;;;;9.80;9.00;;;35.30;57.30;;;;;;4996624;28;20480;-66
2021/09/06 08:58:24;;;;;;;9.13;8.30;;;35.50;57.40;;;;;;4996513;28;20455;-66
2021/09/06 09:00:51;;;;;;;12.40;8.57;;;34.90;58.60;;;;;;4996229;28;20495;-66
2021/09/06 09:03:19;;;;;;;12.20;9.20;;;35.20;60.50;;;;;;4996435;28;20457;-66
2021/09/06 09:06:07;;;;;;;10.53;9.63;;;35.50;55.70;;;;;;4996357;28;20439;-66
2021/09/06 09:08:35;;;;;;;9.93;9.00;;;36.10;55.80;;;;;;4993148;28;20470;-66
2021/09/06 09:11:03;;;;;;;10.00;9.20;;;36.70;55.20;;;;;;4996268;28;20478;-66
2021/09/06 09:13:31;;;;;;;9.47;8.63;;;37.00;52.10;;;;;;4996000;28;20460;-66
2021/09/06 09:15:58;;;;;;;10.63;9.60;;;37.10;55.40;;;;;;4996184;28;20480;-66
2021/09/06 09:18:27;;;;;;;10.37;9.37;;;37.00;54.10;;;;;;4996171;28;20505;-66
2021/09/06 09:21:02;;;;;;;9.63;8.80;;;36.00;56.50;;;;;;4996078;28;20484;-66
2021/09/06 09:23:42;;;;;;;10.57;9.60;;;36.30;56.00;;;;;;4996160;28;20485;-66
2021/09/06 09:26:09;;;;;;;9.53;8.63;;;36.90;54.00;;;;;;4996002;28;20805;-65
2021/09/06 09:28:41;;;;;;;12.50;9.50;;;37.10;53.80;;;;;;4995943;28;20471;-66
2021/09/06 09:31:10;;;;;;;10.23;8.63;;;37.00;54.00;;;;;;4994644;28;20976;-66
2021/09/06 09:33:45;;;;;;;7.20;6.70;;;37.50;52.80;;;;;;4995741;28;20464;-66
2021/09/06 09:36:12;;;;;;;7.93;6.03;;;37.50;51.00;;;;;;4995862;28;20872;-65
2021/09/06 09:38:41;;;;;;;9.07;8.23;;;38.10;50.90;;;;;;4995608;28;20455;-65
2021/09/06 09:41:16;;;;;;;7.90;7.17;;;38.70;49.50;;;;;;4995655;28;20479;-65
2021/09/06 09:43:44;;;;;;;10.60;7.33;;;38.80;47.50;;;;;;4996039;28;20806;-65
2021/09/06 09:46:11;;;;;;;9.40;8.57;;;38.80;49.50;;;;;;4995619;28;20455;-65
2021/09/06 09:48:38;;;;;;;8.60;7.90;;;38.60;47.00;;;;;;4995598;28;20453;-65
2021/09/06 09:51:04;;;;;;;9.00;7.50;;;38.40;46.80;;;;;;4995370;28;20500;-66
2021/09/06 09:53:32;;;;;;;7.43;7.00;;;38.50;47.60;;;;;;4995644;28;20507;-66
2021/09/06 09:56:01;;;;;;;7.70;7.10;;;38.90;51.20;;;;;;4995229;28;20968;-66
2021/09/06 09:58:28;;;;;;;8.80;6.40;;;39.40;48.30;;;;;;4995486;28;20457;-65
2021/09/06 10:00:57;;;;;;;7.37;6.93;;;39.50;47.70;;;;;;4995525;28;20489;-65
2021/09/06 10:03:26;;;;;;;7.10;6.60;;;39.70;43.60;;;;;;4995808;28;20201;-65
2021/09/06 10:05:54;;;;;;;7.10;6.50;;;40.10;43.80;;;;;;4995381;28;20201;-66
2021/09/06 10:08:22;;;;;;;6.57;6.17;;;40.40;44.40;;;;;;4995577;28;20205;-66
2021/09/06 10:10:48;;;;;;;6.97;6.53;;;38.90;45.60;;;;;;4995660;28;20221;-66
2021/09/06 10:13:18;;;;;;;8.10;7.37;;;39.20;46.30;;;;;;4995389;28;20201;-66
2021/09/06 10:15:57;;;;;;;7.23;6.63;;;39.40;44.20;;;;;;4995298;28;20477;-66
2021/09/06 10:18:25;;;;;;;7.00;6.60;;;39.80;45.50;;;;;;4995272;28;20262;-66
2021/09/06 10:20:55;;;;;;;8.20;7.50;;;39.70;43.00;;;;;;4995227;28;20218;-66
2021/09/06 10:23:23;;;;;;;8.47;7.77;;;39.40;43.10;;;;;;4994867;28;20460;-66
2021/09/06 10:25:51;;;;;;;8.07;7.23;;;39.70;46.20;;;;;;4994682;28;20719;-66
2021/09/06 10:28:30;;;;;;;7.97;7.47;;;39.40;45.40;;;;;;4995079;28;20496;-66
2021/09/06 10:30:57;;;;;;;7.53;6.87;;;39.20;45.80;;;;;;4995031;28;20477;-66
2021/09/06 10:33:30;;;;;;;7.93;7.17;;;39.30;45.40;;;;;;4994732;28;20944;-66
2021/09/06 10:36:18;;;;;;;8.63;8.03;;;38.90;45.40;;;;;;4994950;28;20537;-66
2021/09/06 10:38:47;;;;;;;10.23;8.73;;;39.20;47.20;;;;;;4991401;28;20983;-66
2021/09/06 10:41:18;;;;;;;13.90;9.33;;;39.40;47.30;;;;;;4994815;28;20481;-67
2021/09/06 10:43:48;;;;;;;8.90;8.30;;;39.40;44.70;;;;;;4994962;28;20197;-67
2021/09/06 10:46:15;;;;;;;8.50;7.80;;;39.40;49.90;;;;;;4994556;28;20453;-66
2021/09/06 10:48:43;;;;;;;9.77;9.07;;;39.50;46.50;;;;;;4994996;28;20476;-65
2021/09/06 10:51:10;;;;;;;8.40;7.80;;;39.50;45.70;;;;;;4994506;28;20217;-65
2021/09/06 10:53:38;;;;;;;9.00;8.43;;;39.20;46.70;;;;;;4994757;28;20508;-65
2021/09/06 10:56:07;;;;;;;9.83;9.03;;;38.70;45.70;;;;;;4994661;28;20480;-65
2021/09/06 10:58:34;;;;;;;9.90;9.10;;;38.40;48.30;;;;;;4994834;28;20543;-66
2021/09/06 11:01:04;;;;;;;9.37;8.50;;;38.30;46.90;;;;;;4994498;28;20497;-65
2021/09/06 11:03:36;;;;;;;8.80;8.10;;;38.50;48.00;;;;;;4994424;28;21028;-65
2021/09/06 11:06:04;;;;;;;8.40;7.90;;;38.20;47.60;;;;;;4994644;28;20780;-65
2021/09/06 11:08:33;;;;;;;8.50;7.87;;;38.00;46.60;;;;;;4994484;28;20460;-65
2021/09/06 11:11:02;;;;;;;7.83;7.30;;;37.90;47.60;;;;;;4994562;28;20906;-67
2021/09/06 11:13:37;;;;;;;9.00;8.23;;;37.50;46.10;;;;;;4994561;28;20463;-65
2021/09/06 11:16:07;;;;;;;8.97;7.00;;;36.60;47.60;;;;;;4994376;28;20486;-65
2021/09/06 11:18:35;;;;;;;8.47;7.87;;;36.00;48.10;;;;;;4995113;28;20474;-64
2021/09/06 11:21:02;;;;;;;8.40;7.53;;;35.60;48.10;;;;;;4994454;28;20828;-64
2021/09/06 11:23:34;;;;;;;8.17;7.50;;;35.20;48.40;;;;;;4994393;28;20451;-66
2021/09/06 11:26:01;;;;;;;8.00;7.40;;;35.00;49.60;;;;;;4994106;28;20942;-65
2021/09/06 11:28:28;;;;;;;8.23;7.57;;;34.40;55.60;;;;;;4994449;28;20457;-66
2021/09/06 11:30:56;;;;;;;8.60;8.00;;;34.20;51.80;;;;;;4994486;28;20478;-66
2021/09/06 11:33:24;;;;;;;8.83;8.23;;;33.70;50.90;;;;;;4994019;28;20454;-65
2021/09/06 11:35:51;;;;;;;9.40;8.70;;;33.50;49.60;;;;;;4994313;28;20466;-65
2021/09/06 11:38:19;;;;;;;7.83;7.17;;;33.50;52.40;;;;;;4994515;28;20449;-65
2021/09/06 11:40:53;;;;;;;8.03;7.20;;;33.20;51.70;;;;;;4994253;28;20531;-66
2021/09/06 11:43:20;;;;;;;7.27;6.67;;;32.90;50.40;;;;;;4994316;28;20473;-65
2021/09/06 11:45:48;;;;;;;7.77;7.27;;;32.70;49.60;;;;;;4994240;28;20442;-65
2021/09/06 11:48:15;;;;;;;8.57;7.77;;;32.50;47.60;;;;;;4994075;28;20434;-64
2021/09/06 11:50:43;;;;;;;7.77;7.10;;;32.60;50.40;;;;;;4993880;28;20958;-65
2021/09/06 11:53:12;;;;;;;8.00;7.40;;;32.40;50.50;;;;;;4993963;28;20957;-65
2021/09/06 11:55:50;;;;;;;7.50;6.90;;;32.40;48.30;;;;;;4997078;28;20442;-65
2021/09/06 11:58:17;;;;;;;6.80;6.30;;;32.30;49.80;;;;;;4997734;28;20449;-65
2021/09/06 12:00:43;;;;;;;7.70;7.20;;;32.30;49.90;;;;;;4997123;28;20984;-63
2021/09/06 12:03:11;;;;;;;7.47;6.77;;;32.20;48.70;;;;;;4997696;28;20453;-64
2021/09/06 12:05:39;;;;;;;7.27;6.63;;;32.20;49.10;;;;;;4997541;28;20453;-64
2021/09/06 12:08:12;;;;;;;7.93;7.30;;;32.10;50.70;;;;;;4997730;28;20454;-64
2021/09/06 12:10:39;;;;;;;6.90;6.40;;;31.60;49.40;;;;;;4997414;28;20505;-64
2021/09/06 12:13:08;;;;;;;7.60;6.93;;;31.50;52.80;;;;;;4997342;28;20500;-65
2021/09/06 12:15:37;;;;;;;7.53;7.03;;;31.40;50.20;;;;;;4997429;28;20457;-64
2021/09/06 12:18:08;;;;;;;7.37;6.87;;;31.40;50.30;;;;;;4996861;28;21001;-63
2021/09/06 12:20:38;;;;;;;7.40;6.80;;;31.60;50.20;;;;;;4997374;28;20477;-65
2021/09/06 12:23:06;;;;;;;8.63;7.90;;;31.60;50.40;;;;;;4997579;28;20549;-63
2021/09/06 12:25:34;;;;;;;8.13;7.40;;;31.50;51.10;;;;;;4997478;28;20508;-63
2021/09/06 12:28:09;;;;;;;8.07;7.37;;;31.70;54.70;;;;;;4997730;28;20453;-62
2021/09/06 12:30:36;;;;;;;15.47;10.43;;;31.40;50.00;;;;;;4997058;28;20501;-62
2021/09/06 12:33:03;;;;;;;7.50;6.90;;;31.50;50.10;;;;;;4997055;28;20465;-62
2021/09/06 12:35:29;;;;;;;7.40;6.90;;;31.30;50.10;;;;;;4997031;28;20453;-62
2021/09/06 12:37:56;;;;;;;7.40;6.83;;;31.40;53.60;;;;;;4996911;28;20482;-63
2021/09/06 12:40:23;;;;;;;7.13;6.60;;;31.70;52.70;;;;;;4997066;28;20457;-65
2021/09/06 12:42:51;;;;;;;7.80;7.20;;;31.70;51.70;;;;;;4997129;28;20458;-64
2021/09/06 12:45:18;;;;;;;8.50;7.80;;;31.30;51.60;;;;;;4996996;28;20462;-65
2021/09/06 12:47:45;;;;;;;7.83;7.23;;;31.10;52.90;;;;;;4996803;28;20976;-63
2021/09/06 12:50:12;;;;;;;7.83;7.10;;;31.00;53.30;;;;;;4997917;28;21015;-66
2021/09/06 12:52:39;;;;;;;7.77;7.17;;;31.20;53.70;;;;;;4997563;28;20981;-64
2021/09/06 12:55:07;;;;;;;8.67;7.90;;;31.20;51.50;;;;;;4997918;28;20458;-64
2021/09/06 12:57:35;;;;;;;8.43;7.63;;;31.40;52.90;;;;;;4999080;28;20553;-66
2021/09/06 13:00:04;;;;;;;7.23;6.73;;;31.40;55.10;;;;;;5005327;28;20481;-65
2021/09/06 13:02:31;;;;;;;7.03;6.53;;;31.40;51.00;;;;;;5007057;28;20508;-65
2021/09/06 13:04:58;;;;;;;7.80;7.10;;;31.70;54.00;;;;;;5003353;28;20465;-64
2021/09/06 13:07:25;;;;;;;15.13;9.30;;;31.60;50.50;;;;;;4999155;28;20445;-64
2021/09/06 13:09:52;;;;;;;7.93;7.13;;;31.70;55.90;;;;;;4998975;28;20457;-65
2021/09/06 13:12:18;;;;;;;15.00;8.93;;;31.80;52.90;;;;;;4999116;28;20473;-65
2021/09/06 13:14:45;;;;;;;8.33;7.63;;;31.90;53.80;;;;;;4996949;28;20453;-64
2021/09/06 13:17:13;;;;;;;9.00;8.20;;;32.00;53.30;;;;;;4996154;28;20872;-64
2021/09/06 13:19:40;;;;;;;17.63;10.43;;;32.10;50.40;;;;;;4996881;28;20464;-66
2021/09/06 13:22:07;;;;;;;17.73;11.67;;;32.00;50.30;;;;;;4996448;28;20477;-66
2021/09/06 13:24:34;;;;;;;12.60;9.30;;;32.10;50.20;;;;;;4996287;28;20454;-66
2021/09/06 13:27:01;;;;;;;9.57;8.60;;;32.00;52.70;;;;;;4995901;28;20537;-66
2021/09/06 13:29:27;;;;;;;8.90;7.50;;;32.10;53.10;;;;;;4996366;28;20457;-65
2021/09/06 13:31:54;;;;;;;7.67;7.10;;;31.50;51.90;;;;;;4997003;28;20473;-66
2021/09/06 13:34:22;;;;;;;19.13;9.83;;;31.60;53.60;;;;;;4996933;28;20445;-64
2021/09/06 13:36:49;;;;;;;7.17;6.67;;;31.80;53.80;;;;;;4995993;28;20539;-65
2021/09/06 13:39:16;;;;;;;7.20;6.70;;;31.80;53.80;;;;;;4996014;28;20460;-65
2021/09/06 13:41:42;;;;;;;11.40;9.30;;;31.90;52.70;;;;;;4996044;28;20480;-65
2021/09/06 13:44:09;;;;;;;26.23;10.60;;;32.00;51.70;;;;;;4995897;28;20454;-64
2021/09/06 13:46:36;;;;;;;8.37;7.67;;;32.10;53.30;;;;;;4995734;28;20489;-65
2021/09/06 13:49:03;;;;;;;9.33;8.50;;;32.40;55.30;;;;;;4995747;28;20457;-66
2021/09/06 13:51:31;;;;;;;7.87;7.30;;;32.30;50.40;;;;;;4995642;28;20473;-64
2021/09/06 13:53:57;;;;;;;7.97;7.37;;;32.30;51.80;;;;;;4995641;28;20454;-66
2021/09/06 13:56:24;;;;;;;7.70;7.10;;;32.30;50.70;;;;;;4995853;28;20458;-66
2021/09/06 13:58:51;;;;;;;7.53;6.90;;;32.30;52.90;;;;;;4995594;28;20485;-66
2021/09/06 14:01:18;;;;;;;7.67;7.17;;;32.10;50.20;;;;;;4995796;28;20486;-66
2021/09/06 14:03:44;;;;;;;7.97;7.33;;;32.10;52.10;;;;;;4995744;28;20453;-66
2021/09/06 14:06:11;;;;;;;7.67;7.13;;;32.20;53.40;;;;;;4995394;28;20505;-66
2021/09/06 14:08:39;;;;;;;8.20;7.50;;;32.20;52.00;;;;;;4995398;28;20461;-65
2021/09/06 14:11:07;;;;;;;7.03;6.47;;;32.20;51.10;;;;;;4995147;28;20984;-66
2021/09/06 14:13:34;;;;;;;8.17;7.53;;;32.30;52.20;;;;;;4995576;28;20461;-66
2021/09/06 14:16:01;;;;;;;8.97;8.03;;;31.90;53.40;;;;;;4995176;28;20941;-66
2021/09/06 14:18:27;;;;;;;7.57;7.03;;;31.70;55.30;;;;;;4994871;28;20666;-65
2021/09/06 14:20:54;;;;;;;8.13;7.53;;;31.50;53.60;;;;;;4995151;28;20486;-65
2021/09/06 14:23:21;;;;;;;8.20;7.50;;;31.20;53.50;;;;;;4995118;28;20457;-65
2021/09/06 14:25:49;;;;;;;9.07;8.27;;;30.90;54.40;;;;;;4995025;28;20454;-65
2021/09/06 14:28:16;;;;;;;16.90;7.80;;;30.00;54.10;;;;;;4994974;28;20434;-66
2021/09/06 14:30:43;;;;;;;7.37;6.87;;;29.90;55.60;;;;;;4994625;28;20470;-66
2021/09/06 14:33:09;;;;;;;8.43;7.80;;;29.90;55.70;;;;;;4994770;28;20458;-66
2021/09/06 14:35:36;;;;;;;7.80;7.17;;;30.00;53.50;;;;;;4994967;28;20460;-65
2021/09/06 14:38:03;;;;;;;7.13;6.63;;;30.10;54.00;;;;;;4994448;28;20473;-66
2021/09/06 14:40:29;;;;;;;7.80;7.20;;;30.20;54.90;;;;;;4994329;28;20461;-66
2021/09/06 14:42:57;;;;;;;9.13;7.30;;;30.00;53.80;;;;;;4994077;28;20937;-65
2021/09/06 14:45:24;;;;;;;7.90;7.30;;;30.10;55.50;;;;;;4994542;28;20450;-65
2021/09/06 14:47:51;;;;;;;7.30;6.80;;;30.30;54.40;;;;;;4994432;28;20952;-64
2021/09/06 14:50:18;;;;;;;7.40;6.80;;;30.30;55.40;;;;;;4994681;28;20461;-64
2021/09/06 14:52:44;;;;;;;7.70;7.10;;;30.20;51.70;;;;;;4994675;28;20824;-64
2021/09/06 14:55:11;;;;;;;7.67;7.17;;;30.20;52.40;;;;;;4994452;28;20467;-64
2021/09/06 14:57:38;;;;;;;8.60;8.00;;;29.90;55.00;;;;;;4994543;28;20523;-64
2021/09/06 15:00:08;;;;;;;7.83;7.23;;;29.90;55.70;;;;;;4994727;28;20464;-66
2021/09/06 15:02:35;;;;;;;8.20;7.60;;;29.90;53.70;;;;;;4993896;28;20491;-66
2021/09/06 15:05:01;;;;;;;8.47;7.80;;;30.00;54.60;;;;;;4994557;28;20453;-66
2021/09/06 15:07:29;;;;;;;7.10;6.67;;;30.10;56.50;;;;;;4994395;28;20454;-66
2021/09/06 15:09:56;;;;;;;8.10;7.30;;;30.00;52.60;;;;;;4994482;28;20442;-66
2021/09/06 15:12:24;;;;;;;7.97;7.07;;;30.10;54.40;;;;;;4993954;28;20887;-65
2021/09/06 15:14:51;;;;;;;7.90;7.20;;;29.90;57.30;;;;;;4994435;28;20457;-66
2021/09/06 15:17:19;;;;;;;7.20;6.70;;;29.90;53.70;;;;;;4994039;28;21027;-66
2021/09/06 15:19:45;;;;;;;7.07;6.60;;;29.90;56.20;;;;;;4994467;28;20461;-64
2021/09/06 15:22:12;;;;;;;7.60;7.00;;;29.60;54.80;;;;;;4994379;28;20477;-64
2021/09/06 15:24:39;;;;;;;7.33;6.83;;;29.50;54.40;;;;;;4994118;28;20454;-65
2021/09/06 15:27:07;;;;;;;8.23;7.53;;;29.50;54.50;;;;;;4993892;28;20464;-64
2021/09/06 15:29:59;;;;;;;7.83;7.20;;;29.50;55.40;;;;;;4996903;28;20485;-66
2021/09/06 15:32:27;;;;;;;8.40;7.33;;;29.40;56.40;;;;;;4998047;28;21043;-65
2021/09/06 15:34:55;;;;;;;7.87;7.17;;;29.30;54.00;;;;;;4998481;28;20457;-64
2021/09/06 15:37:23;;;;;;;7.73;7.03;;;29.30;56.70;;;;;;4998785;28;20474;-66
2021/09/06 15:39:50;;;;;;;7.80;7.20;;;29.30;57.60;;;;;;4998550;28;20441;-66
2021/09/06 15:42:18;;;;;;;8.47;7.67;;;29.30;54.50;;;;;;4998113;28;20473;-66
2021/09/06 15:44:45;;;;;;;7.57;7.07;;;29.40;56.30;;;;;;4998024;28;20484;-66
2021/09/06 15:47:14;;;;;;;8.07;7.40;;;29.40;55.80;;;;;;4998654;28;20449;-65
2021/09/06 15:49:42;;;;;;;7.60;7.00;;;29.30;54.50;;;;;;4997929;28;20908;-66
2021/09/06 15:52:09;;;;;;;7.60;7.00;;;29.10;55.00;;;;;;4997831;28;20474;-66
2021/09/06 15:54:36;;;;;;;8.27;7.47;;;29.00;55.50;;;;;;4998008;28;20444;-66
2021/09/06 15:57:04;;;;;;;8.10;7.50;;;29.00;57.10;;;;;;4997959;28;20457;-66
2021/09/06 15:59:32;;;;;;;7.50;7.00;;;28.90;56.20;;;;;;4997901;28;20482;-66
2021/09/06 16:01:59;;;;;;;9.37;8.67;;;28.60;55.40;;;;;;4997631;28;21067;-65
2021/09/06 16:04:25;;;;;;;8.47;7.77;;;28.50;55.30;;;;;;4998162;28;20457;-66
2021/09/06 16:06:53;;;;;;;9.23;8.53;;;28.40;55.40;;;;;;4997834;28;20469;-66
2021/09/06 16:09:20;;;;;;;9.07;8.30;;;28.40;56.40;;;;;;4997527;28;20454;-66
2021/09/06 16:11:47;;;;;;;8.37;7.57;;;28.30;57.90;;;;;;4997363;28;20508;-66
2021/09/06 16:14:14;;;;;;;7.93;7.33;;;28.20;58.60;;;;;;4997588;28;20457;-65
2021/09/06 16:16:40;;;;;;;8.90;8.13;;;28.20;58.90;;;;;;4997662;28;20453;-66
2021/09/06 16:19:07;;;;;;;8.57;7.97;;;27.90;60.10;;;;;;4997680;28;20841;-66
2021/09/06 16:21:34;;;;;;;7.70;7.10;;;27.80;62.50;;;;;;4997659;28;20484;-66
2021/09/06 16:24:02;;;;;;;8.40;6.87;;;27.70;62.30;;;;;;4996824;28;20464;-66
2021/09/06 16:26:29;;;;;;;7.93;7.20;;;27.50;65.30;;;;;;4997237;28;20454;-65
2021/09/06 16:28:56;;;;;;;7.70;7.10;;;27.40;62.90;;;;;;4997116;28;20449;-65
2021/09/06 16:31:23;;;;;;;8.80;7.90;;;27.30;62.50;;;;;;4996999;28;20477;-65
2021/09/06 16:33:50;;;;;;;10.03;7.40;;;27.30;63.30;;;;;;4996672;28;20916;-65
2021/09/06 16:36:16;;;;;;;8.60;8.00;;;27.20;63.10;;;;;;4996830;28;20953;-65
2021/09/06 16:38:43;;;;;;;8.37;7.67;;;27.20;62.40;;;;;;4997089;28;20478;-65
2021/09/06 16:41:12;;;;;;;11.47;9.47;;;27.10;62.80;;;;;;4996513;28;20478;-64
2021/09/06 16:43:39;;;;;;;10.03;9.03;;;27.10;63.80;;;;;;4996986;28;20456;-66